sensor_id;sensor_type;location;lat;lon;timestamp;P1;durP1;ratioP1;P2;durP2;ratioP2
27899;SDS011;15243;50.726;7.080;2022-08-30T00:02:23;6.93;;;3.40;;
27899;SDS011;15243;50.726;7.080;2022-08-30T00:04:50;8.35;;;3.60;;
27899;SDS011;15243;50.726;7.080;2022-08-30T00:07:19;6.65;;;3.15;;
27899;SDS011;15243;50.726;7.080;2022-08-30T00:09:47;8.25;;;3.75;;
27899;SDS011;15243;50.726;7.080;2022-08-30T00:12:14;12.60;;;3.45;;
27899;SDS011;15243;50.726;7.080;2022-08-30T00:14:41;6.47;;;3.17;;
27899;SDS011;15243;50.726;7.080;2022-08-30T00:17:08;7.05;;;3.47;;
27899;SDS011;15243;50.726;7.080;2022-08-30T00:19:36;10.27;;;3.63;;
27899;SDS011;15243;50.726;7.080;2022-08-30T00:22:04;8.93;;;3.70;;
27899;SDS011;15243;50.726;7.080;2022-08-30T00:24:32;12.30;;;3.90;;
27899;SDS011;15243;50.726;7.080;2022-08-30T00:26:59;9.18;;;3.58;;
27899;SDS011;15243;50.726;7.080;2022-08-30T00:29:26;10.55;;;3.40;;
27899;SDS011;15243;50.726;7.080;2022-08-30T00:31:53;6.85;;;3.15;;
27899;SDS011;15243;50.726;7.080;2022-08-30T00:34:20;9.60;;;4.03;;
27899;SDS011;15243;50.726;7.080;2022-08-30T00:36:48;5.55;;;3.28;;
27899;SDS011;15243;50.726;7.080;2022-08-30T00:39:15;6.32;;;3.13;;
27899;SDS011;15243;50.726;7.080;2022-08-30T00:41:44;7.97;;;3.25;;
27899;SDS011;15243;50.726;7.080;2022-08-30T00:44:12;10.38;;;3.55;;
27899;SDS011;15243;50.726;7.080;2022-08-30T00:46:40;6.28;;;3.17;;
27899;SDS011;15243;50.726;7.080;2022-08-30T00:49:09;7.72;;;3.33;;
27899;SDS011;15243;50.726;7.080;2022-08-30T00:51:39;6.40;;;2.95;;
27899;SDS011;15243;50.726;7.080;2022-08-30T00:54:08;9.57;;;3.55;;
27899;SDS011;15243;50.726;7.080;2022-08-30T00:56:37;8.27;;;3.83;;
27899;SDS011;15243;50.726;7.080;2022-08-30T00:59:05;11.00;;;3.42;;
27899;SDS011;15243;50.726;7.080;2022-08-30T01:01:34;8.77;;;3.30;;
27899;SDS011;15243;50.726;7.080;2022-08-30T01:04:04;7.38;;;3.47;;
27899;SDS011;15243;50.726;7.080;2022-08-30T01:06:34;8.48;;;3.92;;
27899;SDS011;15243;50.726;7.080;2022-08-30T01:09:03;10.98;;;3.92;;
27899;SDS011;15243;50.726;7.080;2022-08-30T01:11:32;5.65;;;3.42;;
27899;SDS011;15243;50.726;7.080;2022-08-30T01:14:01;6.05;;;3.10;;
27899;SDS011;15243;50.726;7.080;2022-08-30T01:16:30;8.23;;;3.05;;
27899;SDS011;15243;50.726;7.080;2022-08-30T01:19:00;7.63;;;3.50;;
27899;SDS011;15243;50.726;7.080;2022-08-30T01:21:39;6.40;;;3.03;;
27899;SDS011;15243;50.726;7.080;2022-08-30T01:24:11;5.57;;;3.35;;
27899;SDS011;15243;50.726;7.080;2022-08-30T01:26:39;10.05;;;3.50;;
27899;SDS011;15243;50.726;7.080;2022-08-30T01:29:08;7.97;;;3.50;;
27899;SDS011;15243;50.726;7.080;2022-08-30T01:31:38;5.68;;;3.13;;
27899;SDS011;15243;50.726;7.080;2022-08-30T01:34:06;6.00;;;3.28;;
27899;SDS011;15243;50.726;7.080;2022-08-30T01:36:36;7.95;;;3.35;;
27899;SDS011;15243;50.726;7.080;2022-08-30T01:39:10;6.75;;;3.47;;
27899;SDS011;15243;50.726;7.080;2022-08-30T01:41:42;8.05;;;3.40;;
27899;SDS011;15243;50.726;7.080;2022-08-30T01:44:11;8.57;;;3.60;;
27899;SDS011;15243;50.726;7.080;2022-08-30T01:46:40;7.97;;;3.75;;
27899;SDS011;15243;50.726;7.080;2022-08-30T01:49:13;8.63;;;3.65;;
27899;SDS011;15243;50.726;7.080;2022-08-30T01:51:43;11.52;;;3.65;;
27899;SDS011;15243;50.726;7.080;2022-08-30T01:54:11;8.85;;;4.05;;
27899;SDS011;15243;50.726;7.080;2022-08-30T01:56:38;6.70;;;3.58;;
27899;SDS011;15243;50.726;7.080;2022-08-30T01:59:05;11.13;;;3.65;;
27899;SDS011;15243;50.726;7.080;2022-08-30T02:01:32;8.63;;;3.95;;
27899;SDS011;15243;50.726;7.080;2022-08-30T02:04:02;7.53;;;3.58;;
27899;SDS011;15243;50.726;7.080;2022-08-30T02:06:30;8.07;;;4.15;;
27899;SDS011;15243;50.726;7.080;2022-08-30T02:08:57;9.48;;;3.83;;
27899;SDS011;15243;50.726;7.080;2022-08-30T02:11:25;10.48;;;3.95;;
27899;SDS011;15243;50.726;7.080;2022-08-30T02:13:52;12.00;;;4.05;;
27899;SDS011;15243;50.726;7.080;2022-08-30T02:16:19;9.88;;;4.38;;
27899;SDS011;15243;50.726;7.080;2022-08-30T02:18:52;6.82;;;3.45;;
27899;SDS011;15243;50.726;7.080;2022-08-30T02:21:21;8.05;;;3.88;;
27899;SDS011;15243;50.726;7.080;2022-08-30T02:23:49;9.95;;;3.65;;
27899;SDS011;15243;50.726;7.080;2022-08-30T02:26:17;10.20;;;3.67;;
27899;SDS011;15243;50.726;7.080;2022-08-30T02:28:44;6.90;;;4.00;;
27899;SDS011;15243;50.726;7.080;2022-08-30T02:31:16;9.05;;;3.85;;
27899;SDS011;15243;50.726;7.080;2022-08-30T02:33:46;9.07;;;3.65;;
27899;SDS011;15243;50.726;7.080;2022-08-30T02:36:15;9.18;;;3.85;;
27899;SDS011;15243;50.726;7.080;2022-08-30T02:38:43;10.05;;;3.85;;
27899;SDS011;15243;50.726;7.080;2022-08-30T02:41:10;10.32;;;3.53;;
27899;SDS011;15243;50.726;7.080;2022-08-30T02:43:37;7.50;;;3.47;;
27899;SDS011;15243;50.726;7.080;2022-08-30T02:46:04;7.18;;;3.60;;
27899;SDS011;15243;50.726;7.080;2022-08-30T02:48:31;6.97;;;3.85;;
27899;SDS011;15243;50.726;7.080;2022-08-30T02:51:03;7.80;;;3.80;;
27899;SDS011;15243;50.726;7.080;2022-08-30T02:53:37;7.05;;;3.05;;
27899;SDS011;15243;50.726;7.080;2022-08-30T02:56:05;9.18;;;3.30;;
27899;SDS011;15243;50.726;7.080;2022-08-30T02:58:32;8.20;;;3.33;;
27899;SDS011;15243;50.726;7.080;2022-08-30T03:00:59;7.53;;;3.40;;
27899;SDS011;15243;50.726;7.080;2022-08-30T03:03:27;7.53;;;3.53;;
27899;SDS011;15243;50.726;7.080;2022-08-30T03:05:54;6.10;;;3.25;;
27899;SDS011;15243;50.726;7.080;2022-08-30T03:08:21;6.90;;;3.20;;
27899;SDS011;15243;50.726;7.080;2022-08-30T03:10:48;5.25;;;3.35;;
27899;SDS011;15243;50.726;7.080;2022-08-30T03:13:15;10.48;;;4.28;;
27899;SDS011;15243;50.726;7.080;2022-08-30T03:15:42;5.70;;;3.72;;
27899;SDS011;15243;50.726;7.080;2022-08-30T03:18:09;8.77;;;3.40;;
27899;SDS011;15243;50.726;7.080;2022-08-30T03:20:36;8.73;;;4.32;;
27899;SDS011;15243;50.726;7.080;2022-08-30T03:23:03;5.43;;;3.42;;
27899;SDS011;15243;50.726;7.080;2022-08-30T03:25:30;7.47;;;3.67;;
27899;SDS011;15243;50.726;7.080;2022-08-30T03:27:59;7.18;;;3.80;;
27899;SDS011;15243;50.726;7.080;2022-08-30T03:30:26;8.27;;;3.63;;
27899;SDS011;15243;50.726;7.080;2022-08-30T03:32:53;8.60;;;3.95;;
27899;SDS011;15243;50.726;7.080;2022-08-30T03:35:20;12.93;;;3.97;;
27899;SDS011;15243;50.726;7.080;2022-08-30T03:37:47;6.90;;;3.97;;
27899;SDS011;15243;50.726;7.080;2022-08-30T03:40:21;8.23;;;3.47;;
27899;SDS011;15243;50.726;7.080;2022-08-30T03:42:48;6.63;;;3.13;;
27899;SDS011;15243;50.726;7.080;2022-08-30T03:45:16;10.85;;;3.95;;
27899;SDS011;15243;50.726;7.080;2022-08-30T03:47:44;11.48;;;3.92;;
27899;SDS011;15243;50.726;7.080;2022-08-30T03:50:11;7.20;;;4.03;;
27899;SDS011;15243;50.726;7.080;2022-08-30T03:52:39;8.27;;;3.50;;
27899;SDS011;15243;50.726;7.080;2022-08-30T03:55:06;9.68;;;3.58;;
27899;SDS011;15243;50.726;7.080;2022-08-30T03:57:34;6.88;;;3.67;;
27899;SDS011;15243;50.726;7.080;2022-08-30T04:00:02;4.95;;;3.17;;
27899;SDS011;15243;50.726;7.080;2022-08-30T04:02:31;6.90;;;3.50;;
27899;SDS011;15243;50.726;7.080;2022-08-30T04:04:58;8.85;;;3.70;;
27899;SDS011;15243;50.726;7.080;2022-08-30T04:07:25;5.88;;;3.67;;
27899;SDS011;15243;50.726;7.080;2022-08-30T04:09:52;8.93;;;3.50;;
27899;SDS011;15243;50.726;7.080;2022-08-30T04:12:19;7.32;;;3.80;;
27899;SDS011;15243;50.726;7.080;2022-08-30T04:14:48;9.75;;;3.70;;
27899;SDS011;15243;50.726;7.080;2022-08-30T04:17:15;8.38;;;3.72;;
27899;SDS011;15243;50.726;7.080;2022-08-30T04:19:42;8.18;;;3.30;;
27899;SDS011;15243;50.726;7.080;2022-08-30T04:22:09;7.38;;;3.42;;
27899;SDS011;15243;50.726;7.080;2022-08-30T04:24:36;11.95;;;4.05;;
27899;SDS011;15243;50.726;7.080;2022-08-30T04:27:03;11.90;;;3.92;;
27899;SDS011;15243;50.726;7.080;2022-08-30T04:29:30;7.88;;;4.30;;
27899;SDS011;15243;50.726;7.080;2022-08-30T04:31:58;8.18;;;3.60;;
27899;SDS011;15243;50.726;7.080;2022-08-30T04:34:25;9.98;;;3.55;;
27899;SDS011;15243;50.726;7.080;2022-08-30T04:36:52;9.73;;;4.50;;
27899;SDS011;15243;50.726;7.080;2022-08-30T04:39:19;9.50;;;3.53;;
27899;SDS011;15243;50.726;7.080;2022-08-30T04:41:46;8.15;;;3.92;;
27899;SDS011;15243;50.726;7.080;2022-08-30T04:44:13;8.43;;;3.40;;
27899;SDS011;15243;50.726;7.080;2022-08-30T04:46:45;5.65;;;3.50;;
27899;SDS011;15243;50.726;7.080;2022-08-30T04:49:12;7.53;;;3.75;;
27899;SDS011;15243;50.726;7.080;2022-08-30T04:51:39;11.52;;;3.97;;
27899;SDS011;15243;50.726;7.080;2022-08-30T04:54:06;6.97;;;3.53;;
27899;SDS011;15243;50.726;7.080;2022-08-30T04:56:33;7.43;;;3.72;;
27899;SDS011;15243;50.726;7.080;2022-08-30T04:59:02;11.07;;;3.90;;
27899;SDS011;15243;50.726;7.080;2022-08-30T05:01:30;6.18;;;3.72;;
27899;SDS011;15243;50.726;7.080;2022-08-30T05:04:10;10.30;;;3.85;;
27899;SDS011;15243;50.726;7.080;2022-08-30T05:06:37;8.52;;;4.10;;
27899;SDS011;15243;50.726;7.080;2022-08-30T05:09:04;9.52;;;3.85;;
27899;SDS011;15243;50.726;7.080;2022-08-30T05:11:31;9.15;;;4.13;;
27899;SDS011;15243;50.726;7.080;2022-08-30T05:13:58;8.07;;;3.72;;
27899;SDS011;15243;50.726;7.080;2022-08-30T05:16:25;7.60;;;3.50;;
27899;SDS011;15243;50.726;7.080;2022-08-30T05:18:52;12.80;;;3.78;;
27899;SDS011;15243;50.726;7.080;2022-08-30T05:21:23;9.02;;;3.80;;
27899;SDS011;15243;50.726;7.080;2022-08-30T05:23:52;5.70;;;3.47;;
27899;SDS011;15243;50.726;7.080;2022-08-30T05:26:22;6.60;;;3.70;;
27899;SDS011;15243;50.726;7.080;2022-08-30T05:28:51;9.65;;;4.05;;
27899;SDS011;15243;50.726;7.080;2022-08-30T05:31:22;10.70;;;4.07;;
27899;SDS011;15243;50.726;7.080;2022-08-30T05:33:55;6.70;;;3.90;;
27899;SDS011;15243;50.726;7.080;2022-08-30T05:36:23;8.23;;;4.00;;
27899;SDS011;15243;50.726;7.080;2022-08-30T05:38:52;7.40;;;3.45;;
27899;SDS011;15243;50.726;7.080;2022-08-30T05:41:20;6.50;;;3.85;;
27899;SDS011;15243;50.726;7.080;2022-08-30T05:43:52;12.93;;;4.38;;
27899;SDS011;15243;50.726;7.080;2022-08-30T05:46:23;7.50;;;3.63;;
27899;SDS011;15243;50.726;7.080;2022-08-30T05:48:51;11.35;;;4.03;;
27899;SDS011;15243;50.726;7.080;2022-08-30T05:51:19;8.65;;;3.67;;
27899;SDS011;15243;50.726;7.080;2022-08-30T05:53:48;7.88;;;3.60;;
27899;SDS011;15243;50.726;7.080;2022-08-30T05:56:18;8.30;;;3.95;;
27899;SDS011;15243;50.726;7.080;2022-08-30T05:58:50;8.57;;;3.70;;
27899;SDS011;15243;50.726;7.080;2022-08-30T06:01:18;8.88;;;3.53;;
27899;SDS011;15243;50.726;7.080;2022-08-30T06:03:57;10.35;;;3.58;;
27899;SDS011;15243;50.726;7.080;2022-08-30T06:06:30;7.65;;;3.20;;
27899;SDS011;15243;50.726;7.080;2022-08-30T06:08:58;7.25;;;4.10;;
27899;SDS011;15243;50.726;7.080;2022-08-30T06:11:26;6.30;;;3.42;;
27899;SDS011;15243;50.726;7.080;2022-08-30T06:13:53;9.32;;;4.45;;
27899;SDS011;15243;50.726;7.080;2022-08-30T06:16:22;10.93;;;3.80;;
27899;SDS011;15243;50.726;7.080;2022-08-30T06:18:51;8.95;;;4.00;;
27899;SDS011;15243;50.726;7.080;2022-08-30T06:21:20;7.57;;;4.20;;
27899;SDS011;15243;50.726;7.080;2022-08-30T06:23:52;19.02;;;4.75;;
27899;SDS011;15243;50.726;7.080;2022-08-30T06:26:19;12.60;;;4.55;;
27899;SDS011;15243;50.726;7.080;2022-08-30T06:28:47;8.10;;;4.28;;
27899;SDS011;15243;50.726;7.080;2022-08-30T06:31:15;14.40;;;4.35;;
27899;SDS011;15243;50.726;7.080;2022-08-30T06:33:43;10.02;;;4.55;;
27899;SDS011;15243;50.726;7.080;2022-08-30T06:36:13;8.55;;;4.07;;
27899;SDS011;15243;50.726;7.080;2022-08-30T06:38:43;7.63;;;3.92;;
27899;SDS011;15243;50.726;7.080;2022-08-30T06:41:12;11.80;;;4.70;;
27899;SDS011;15243;50.726;7.080;2022-08-30T06:43:41;11.32;;;4.47;;
27899;SDS011;15243;50.726;7.080;2022-08-30T06:46:19;14.32;;;4.35;;
27899;SDS011;15243;50.726;7.080;2022-08-30T06:48:48;13.38;;;4.13;;
27899;SDS011;15243;50.726;7.080;2022-08-30T06:51:18;9.30;;;3.65;;
27899;SDS011;15243;50.726;7.080;2022-08-30T06:53:46;18.63;;;5.25;;
27899;SDS011;15243;50.726;7.080;2022-08-30T06:56:17;8.90;;;3.30;;
27899;SDS011;15243;50.726;7.080;2022-08-30T06:58:45;14.20;;;3.30;;
27899;SDS011;15243;50.726;7.080;2022-08-30T07:01:17;11.93;;;3.83;;
27899;SDS011;15243;50.726;7.080;2022-08-30T07:03:46;9.18;;;4.05;;
27899;SDS011;15243;50.726;7.080;2022-08-30T07:06:14;15.80;;;3.55;;
27899;SDS011;15243;50.726;7.080;2022-08-30T07:08:43;13.05;;;3.50;;
27899;SDS011;15243;50.726;7.080;2022-08-30T07:11:10;17.38;;;4.43;;
27899;SDS011;15243;50.726;7.080;2022-08-30T07:13:38;25.52;;;4.50;;
27899;SDS011;15243;50.726;7.080;2022-08-30T07:16:12;10.60;;;4.15;;
27899;SDS011;15243;50.726;7.080;2022-08-30T07:18:40;12.30;;;4.03;;
27899;SDS011;15243;50.726;7.080;2022-08-30T07:21:20;15.50;;;3.47;;
27899;SDS011;15243;50.726;7.080;2022-08-30T07:23:52;9.95;;;3.88;;
27899;SDS011;15243;50.726;7.080;2022-08-30T07:26:22;12.73;;;3.40;;
27899;SDS011;15243;50.726;7.080;2022-08-30T07:28:51;7.07;;;2.85;;
27899;SDS011;15243;50.726;7.080;2022-08-30T07:31:21;14.00;;;2.95;;
27899;SDS011;15243;50.726;7.080;2022-08-30T07:33:49;6.80;;;3.22;;
27899;SDS011;15243;50.726;7.080;2022-08-30T07:36:16;10.05;;;3.30;;
27899;SDS011;15243;50.726;7.080;2022-08-30T07:38:45;7.68;;;3.08;;
27899;SDS011;15243;50.726;7.080;2022-08-30T07:41:16;9.98;;;3.17;;
27899;SDS011;15243;50.726;7.080;2022-08-30T07:43:45;8.13;;;3.75;;
27899;SDS011;15243;50.726;7.080;2022-08-30T07:46:13;10.18;;;3.05;;
27899;SDS011;15243;50.726;7.080;2022-08-30T07:48:41;11.60;;;3.00;;
27899;SDS011;15243;50.726;7.080;2022-08-30T07:51:13;7.35;;;2.90;;
27899;SDS011;15243;50.726;7.080;2022-08-30T07:53:42;11.15;;;3.30;;
27899;SDS011;15243;50.726;7.080;2022-08-30T07:56:09;7.05;;;2.80;;
27899;SDS011;15243;50.726;7.080;2022-08-30T07:58:36;8.68;;;3.38;;
27899;SDS011;15243;50.726;7.080;2022-08-30T08:01:04;11.50;;;2.95;;
27899;SDS011;15243;50.726;7.080;2022-08-30T08:03:32;7.95;;;2.90;;
27899;SDS011;15243;50.726;7.080;2022-08-30T08:06:04;6.18;;;2.80;;
27899;SDS011;15243;50.726;7.080;2022-08-30T08:08:32;9.37;;;2.87;;
27899;SDS011;15243;50.726;7.080;2022-08-30T08:11:13;10.85;;;3.35;;
27899;SDS011;15243;50.726;7.080;2022-08-30T08:13:47;8.70;;;3.08;;
27899;SDS011;15243;50.726;7.080;2022-08-30T08:16:24;9.15;;;2.90;;
27899;SDS011;15243;50.726;7.080;2022-08-30T08:18:52;9.13;;;3.28;;
27899;SDS011;15243;50.726;7.080;2022-08-30T08:21:20;9.45;;;2.67;;
27899;SDS011;15243;50.726;7.080;2022-08-30T08:23:49;9.98;;;3.20;;
27899;SDS011;15243;50.726;7.080;2022-08-30T08:26:16;9.85;;;2.65;;
27899;SDS011;15243;50.726;7.080;2022-08-30T08:28:44;7.07;;;2.88;;
27899;SDS011;15243;50.726;7.080;2022-08-30T08:31:22;7.10;;;2.80;;
27899;SDS011;15243;50.726;7.080;2022-08-30T08:33:59;11.32;;;2.90;;
27899;SDS011;15243;50.726;7.080;2022-08-30T08:36:30;7.32;;;2.85;;
27899;SDS011;15243;50.726;7.080;2022-08-30T08:38:58;10.25;;;2.42;;
27899;SDS011;15243;50.726;7.080;2022-08-30T08:44:13;10.30;;;2.58;;
27899;SDS011;15243;50.726;7.080;2022-08-30T08:49:42;8.02;;;2.70;;
27899;SDS011;15243;50.726;7.080;2022-08-30T08:52:13;8.93;;;2.60;;
27899;SDS011;15243;50.726;7.080;2022-08-30T08:55:11;12.15;;;2.83;;
27899;SDS011;15243;50.726;7.080;2022-08-30T08:57:40;8.80;;;2.75;;
27899;SDS011;15243;50.726;7.080;2022-08-30T09:00:08;6.97;;;2.35;;
27899;SDS011;15243;50.726;7.080;2022-08-30T09:02:45;7.30;;;2.40;;
27899;SDS011;15243;50.726;7.080;2022-08-30T09:05:21;9.80;;;2.72;;
27899;SDS011;15243;50.726;7.080;2022-08-30T09:07:53;4.80;;;2.72;;
27899;SDS011;15243;50.726;7.080;2022-08-30T09:10:33;9.48;;;3.30;;
27899;SDS011;15243;50.726;7.080;2022-08-30T09:13:15;7.20;;;2.78;;
27899;SDS011;15243;50.726;7.080;2022-08-30T09:15:44;8.50;;;2.80;;
27899;SDS011;15243;50.726;7.080;2022-08-30T09:18:19;6.60;;;2.70;;
27899;SDS011;15243;50.726;7.080;2022-08-30T09:21:07;9.38;;;2.58;;
27899;SDS011;15243;50.726;7.080;2022-08-30T09:23:34;10.02;;;3.05;;
27899;SDS011;15243;50.726;7.080;2022-08-30T09:26:03;8.20;;;2.75;;
27899;SDS011;15243;50.726;7.080;2022-08-30T09:28:33;8.70;;;2.50;;
27899;SDS011;15243;50.726;7.080;2022-08-30T09:34:15;12.73;;;3.00;;
27899;SDS011;15243;50.726;7.080;2022-08-30T09:36:47;8.00;;;2.95;;
27899;SDS011;15243;50.726;7.080;2022-08-30T09:39:25;5.95;;;3.20;;
27899;SDS011;15243;50.726;7.080;2022-08-30T09:42:12;5.05;;;2.80;;
27899;SDS011;15243;50.726;7.080;2022-08-30T09:44:51;11.10;;;2.83;;
27899;SDS011;15243;50.726;7.080;2022-08-30T09:47:20;10.90;;;2.85;;
27899;SDS011;15243;50.726;7.080;2022-08-30T09:50:03;6.20;;;2.72;;
27899;SDS011;15243;50.726;7.080;2022-08-30T09:58:17;7.18;;;2.85;;
27899;SDS011;15243;50.726;7.080;2022-08-30T10:01:08;9.43;;;2.65;;
27899;SDS011;15243;50.726;7.080;2022-08-30T10:04:05;9.35;;;3.03;;
27899;SDS011;15243;50.726;7.080;2022-08-30T10:06:41;7.20;;;2.67;;
27899;SDS011;15243;50.726;7.080;2022-08-30T10:12:11;7.90;;;2.80;;
27899;SDS011;15243;50.726;7.080;2022-08-30T10:25:32;10.25;;;3.00;;
27899;SDS011;15243;50.726;7.080;2022-08-30T10:30:29;6.60;;;2.35;;
27899;SDS011;15243;50.726;7.080;2022-08-30T10:35:42;5.28;;;2.63;;
27899;SDS011;15243;50.726;7.080;2022-08-30T10:41:05;4.60;;;2.45;;
27899;SDS011;15243;50.726;7.080;2022-08-30T10:44:35;7.18;;;2.60;;
27899;SDS011;15243;50.726;7.080;2022-08-30T10:49:48;5.68;;;2.70;;
27899;SDS011;15243;50.726;7.080;2022-08-30T10:52:22;5.22;;;2.65;;
27899;SDS011;15243;50.726;7.080;2022-08-30T10:55:34;6.07;;;2.45;;
27899;SDS011;15243;50.726;7.080;2022-08-30T10:57:44;6.45;;;2.75;;
27899;SDS011;15243;50.726;7.080;2022-08-30T11:00:14;13.15;;;3.15;;
27899;SDS011;15243;50.726;7.080;2022-08-30T11:03:06;9.23;;;2.25;;
27899;SDS011;15243;50.726;7.080;2022-08-30T11:06:04;4.90;;;2.78;;
27899;SDS011;15243;50.726;7.080;2022-08-30T11:08:49;11.23;;;3.08;;
27899;SDS011;15243;50.726;7.080;2022-08-30T11:14:14;7.07;;;2.45;;
27899;SDS011;15243;50.726;7.080;2022-08-30T11:16:44;8.95;;;3.20;;
27899;SDS011;15243;50.726;7.080;2022-08-30T11:19:15;5.70;;;3.00;;
27899;SDS011;15243;50.726;7.080;2022-08-30T11:27:40;9.40;;;2.67;;
27899;SDS011;15243;50.726;7.080;2022-08-30T11:43:55;8.95;;;2.67;;
27899;SDS011;15243;50.726;7.080;2022-08-30T11:46:47;8.82;;;2.63;;
27899;SDS011;15243;50.726;7.080;2022-08-30T11:51:51;6.97;;;2.47;;
27899;SDS011;15243;50.726;7.080;2022-08-30T12:22:50;6.28;;;2.85;;
27899;SDS011;15243;50.726;7.080;2022-08-30T12:28:07;7.70;;;2.40;;
27899;SDS011;15243;50.726;7.080;2022-08-30T12:30:57;4.25;;;2.42;;
27899;SDS011;15243;50.726;7.080;2022-08-30T12:33:41;4.90;;;2.60;;
27899;SDS011;15243;50.726;7.080;2022-08-30T12:36:11;8.35;;;2.60;;
27899;SDS011;15243;50.726;7.080;2022-08-30T12:41:43;12.02;;;2.92;;
27899;SDS011;15243;50.726;7.080;2022-08-30T12:44:24;7.40;;;2.58;;
27899;SDS011;15243;50.726;7.080;2022-08-30T12:46:57;8.40;;;2.40;;
27899;SDS011;15243;50.726;7.080;2022-08-30T12:49:29;6.25;;;2.60;;
27899;SDS011;15243;50.726;7.080;2022-08-30T12:52:19;8.95;;;2.60;;
27899;SDS011;15243;50.726;7.080;2022-08-30T12:54:55;8.73;;;2.78;;
27899;SDS011;15243;50.726;7.080;2022-08-30T12:57:56;9.48;;;3.35;;
27899;SDS011;15243;50.726;7.080;2022-08-30T13:00:30;5.20;;;2.70;;
27899;SDS011;15243;50.726;7.080;2022-08-30T13:03:51;7.45;;;2.83;;
27899;SDS011;15243;50.726;7.080;2022-08-30T13:05:49;6.25;;;3.00;;
27899;SDS011;15243;50.726;7.080;2022-08-30T13:13:56;7.00;;;3.17;;
27899;SDS011;15243;50.726;7.080;2022-08-30T13:16:44;4.00;;;2.55;;
27899;SDS011;15243;50.726;7.080;2022-08-30T13:19:30;5.28;;;3.38;;
27899;SDS011;15243;50.726;7.080;2022-08-30T13:21:58;5.07;;;2.67;;
27899;SDS011;15243;50.726;7.080;2022-08-30T13:24:28;8.43;;;2.88;;
27899;SDS011;15243;50.726;7.080;2022-08-30T13:26:58;6.78;;;3.00;;
27899;SDS011;15243;50.726;7.080;2022-08-30T13:29:29;8.57;;;2.75;;
27899;SDS011;15243;50.726;7.080;2022-08-30T13:31:57;3.50;;;2.38;;
27899;SDS011;15243;50.726;7.080;2022-08-30T13:34:24;4.93;;;2.72;;
27899;SDS011;15243;50.726;7.080;2022-08-30T13:36:53;8.18;;;2.88;;
27899;SDS011;15243;50.726;7.080;2022-08-30T13:39:22;3.75;;;2.75;;
27899;SDS011;15243;50.726;7.080;2022-08-30T13:41:50;5.15;;;2.63;;
27899;SDS011;15243;50.726;7.080;2022-08-30T13:44:17;10.50;;;3.40;;
27899;SDS011;15243;50.726;7.080;2022-08-30T13:46:46;6.03;;;2.78;;
27899;SDS011;15243;50.726;7.080;2022-08-30T13:52:17;5.70;;;2.58;;
27899;SDS011;15243;50.726;7.080;2022-08-30T13:54:52;5.95;;;2.45;;
27899;SDS011;15243;50.726;7.080;2022-08-30T13:57:22;5.15;;;2.80;;
27899;SDS011;15243;50.726;7.080;2022-08-30T14:00:13;5.43;;;2.80;;
27899;SDS011;15243;50.726;7.080;2022-08-30T14:02:43;4.32;;;3.17;;
27899;SDS011;15243;50.726;7.080;2022-08-30T14:05:21;7.22;;;2.85;;
27899;SDS011;15243;50.726;7.080;2022-08-30T14:08:09;4.78;;;2.63;;
27899;SDS011;15243;50.726;7.080;2022-08-30T14:10:57;4.78;;;2.60;;
27899;SDS011;15243;50.726;7.080;2022-08-30T14:13:25;5.90;;;2.80;;
27899;SDS011;15243;50.726;7.080;2022-08-30T14:15:55;5.45;;;2.83;;
27899;SDS011;15243;50.726;7.080;2022-08-30T14:18:44;6.97;;;2.30;;
27899;SDS011;15243;50.726;7.080;2022-08-30T14:21:11;5.40;;;2.58;;
27899;SDS011;15243;50.726;7.080;2022-08-30T14:23:38;8.23;;;2.88;;
27899;SDS011;15243;50.726;7.080;2022-08-30T14:26:10;6.22;;;2.70;;
27899;SDS011;15243;50.726;7.080;2022-08-30T14:28:59;6.88;;;3.25;;
27899;SDS011;15243;50.726;7.080;2022-08-30T14:31:28;6.38;;;3.03;;
27899;SDS011;15243;50.726;7.080;2022-08-30T14:33:59;9.88;;;2.60;;
27899;SDS011;15243;50.726;7.080;2022-08-30T14:36:28;5.93;;;2.88;;
27899;SDS011;15243;50.726;7.080;2022-08-30T14:38:56;7.53;;;2.83;;
27899;SDS011;15243;50.726;7.080;2022-08-30T14:41:23;4.93;;;2.42;;
27899;SDS011;15243;50.726;7.080;2022-08-30T14:43:51;5.88;;;2.88;;
27899;SDS011;15243;50.726;7.080;2022-08-30T14:46:18;7.72;;;2.60;;
27899;SDS011;15243;50.726;7.080;2022-08-30T14:48:45;10.82;;;2.63;;
27899;SDS011;15243;50.726;7.080;2022-08-30T14:51:13;6.85;;;2.50;;
27899;SDS011;15243;50.726;7.080;2022-08-30T14:53:42;5.95;;;2.50;;
27899;SDS011;15243;50.726;7.080;2022-08-30T14:56:11;3.03;;;2.67;;
27899;SDS011;15243;50.726;7.080;2022-08-30T14:58:41;6.25;;;3.45;;
27899;SDS011;15243;50.726;7.080;2022-08-30T15:01:09;4.30;;;2.33;;
27899;SDS011;15243;50.726;7.080;2022-08-30T15:03:38;6.28;;;2.97;;
27899;SDS011;15243;50.726;7.080;2022-08-30T15:06:06;4.45;;;2.90;;
27899;SDS011;15243;50.726;7.080;2022-08-30T15:08:35;9.55;;;2.75;;
27899;SDS011;15243;50.726;7.080;2022-08-30T15:11:09;6.60;;;2.53;;
27899;SDS011;15243;50.726;7.080;2022-08-30T15:13:37;3.70;;;2.67;;
27899;SDS011;15243;50.726;7.080;2022-08-30T15:16:17;3.85;;;2.58;;
27899;SDS011;15243;50.726;7.080;2022-08-30T15:18:52;5.88;;;3.35;;
27899;SDS011;15243;50.726;7.080;2022-08-30T15:21:24;5.28;;;2.58;;
27899;SDS011;15243;50.726;7.080;2022-08-30T15:23:53;3.95;;;2.67;;
27899;SDS011;15243;50.726;7.080;2022-08-30T15:26:20;5.72;;;2.70;;
27899;SDS011;15243;50.726;7.080;2022-08-30T15:28:47;5.85;;;2.72;;
27899;SDS011;15243;50.726;7.080;2022-08-30T15:31:15;12.18;;;3.30;;
27899;SDS011;15243;50.726;7.080;2022-08-30T15:33:44;4.47;;;3.40;;
27899;SDS011;15243;50.726;7.080;2022-08-30T15:36:11;6.20;;;2.83;;
27899;SDS011;15243;50.726;7.080;2022-08-30T15:38:39;9.05;;;3.45;;
27899;SDS011;15243;50.726;7.080;2022-08-30T15:41:09;7.72;;;3.50;;
27899;SDS011;15243;50.726;7.080;2022-08-30T15:43:38;6.78;;;2.92;;
27899;SDS011;15243;50.726;7.080;2022-08-30T15:48:57;6.30;;;2.97;;
27899;SDS011;15243;50.726;7.080;2022-08-30T15:51:25;8.85;;;2.70;;
27899;SDS011;15243;50.726;7.080;2022-08-30T15:53:52;6.20;;;2.80;;
27899;SDS011;15243;50.726;7.080;2022-08-30T15:56:19;7.15;;;3.30;;
27899;SDS011;15243;50.726;7.080;2022-08-30T15:58:47;7.38;;;2.63;;
27899;SDS011;15243;50.726;7.080;2022-08-30T16:01:18;9.90;;;3.58;;
27899;SDS011;15243;50.726;7.080;2022-08-30T16:03:56;8.68;;;3.30;;
27899;SDS011;15243;50.726;7.080;2022-08-30T16:06:25;10.45;;;3.00;;
27899;SDS011;15243;50.726;7.080;2022-08-30T16:08:54;6.30;;;2.92;;
27899;SDS011;15243;50.726;7.080;2022-08-30T16:11:22;7.55;;;3.20;;
27899;SDS011;15243;50.726;7.080;2022-08-30T16:13:54;7.90;;;2.97;;
27899;SDS011;15243;50.726;7.080;2022-08-30T16:16:22;16.30;;;3.25;;
27899;SDS011;15243;50.726;7.080;2022-08-30T16:18:50;5.15;;;3.03;;
27899;SDS011;15243;50.726;7.080;2022-08-30T16:21:21;7.07;;;2.75;;
27899;SDS011;15243;50.726;7.080;2022-08-30T16:23:50;5.90;;;2.90;;
27899;SDS011;15243;50.726;7.080;2022-08-30T16:26:20;5.22;;;3.08;;
27899;SDS011;15243;50.726;7.080;2022-08-30T16:28:47;8.20;;;3.00;;
27899;SDS011;15243;50.726;7.080;2022-08-30T16:31:15;8.60;;;3.00;;
27899;SDS011;15243;50.726;7.080;2022-08-30T16:33:44;8.02;;;2.88;;
27899;SDS011;15243;50.726;7.080;2022-08-30T16:36:12;6.22;;;3.03;;
27899;SDS011;15243;50.726;7.080;2022-08-30T16:38:39;10.35;;;3.00;;
27899;SDS011;15243;50.726;7.080;2022-08-30T16:41:07;7.60;;;3.28;;
27899;SDS011;15243;50.726;7.080;2022-08-30T16:43:37;6.07;;;3.30;;
27899;SDS011;15243;50.726;7.080;2022-08-30T16:46:07;7.60;;;3.40;;
27899;SDS011;15243;50.726;7.080;2022-08-30T16:48:36;6.95;;;3.10;;
27899;SDS011;15243;50.726;7.080;2022-08-30T16:51:07;8.55;;;3.25;;
27899;SDS011;15243;50.726;7.080;2022-08-30T16:53:37;8.30;;;3.72;;
27899;SDS011;15243;50.726;7.080;2022-08-30T16:56:12;6.57;;;2.88;;
27899;SDS011;15243;50.726;7.080;2022-08-30T16:58:42;5.63;;;3.47;;